Tiempo atmosférico en la estación meteorológica de Valleseco, Las Palmas (900 m.)



Fecha
DESCASC
Temp. máxima en grados centígrados (hora)
DESCASC
Temp. mínima en grados centígrados (hora)
DESCASC
Temp. media en grados centígrados
DESCASC
Racha de viento máxima en m/sg (hora)
DESCASC
Velocidad máxima media en intervalos de 10 minutos(hora)
DESCASC
Precipitaciones diarias en mm
DESCASC
Precipitaciones de 00:00 a 06:00 en mm
DESCASC
Precipitaciones de 06:00 a 12:00 en mm
DESCASC
Precipitaciones de 12:00 a 18:00 en mm
DESCASC
Precipitaciones de 18:00 a 24:00 en mm
DESCASC
24-09-2020 26.7 (15:30) 15.6 (07:30) 21.2 13.61 (01:40) 8.06 (01:40) 2.4 1.2 1.2 0 0
23-09-2020 25.5 (12:40) 19 (00:00) 22.3 12.22 (19:40) 5.83 (17:00) 0 0 0 0 0
22-09-2020 30.6 (11:50) 17.7 (00:00) 24.2 6.11 (14:20) 4.17 (12:50) 0 0 0 0 0
21-09-2020 30.9 (13:20) 21.8 (00:00) 26.3 4.17 (10:40) 3.33 (10:40) 0 0 0 0 0
20-09-2020 29.3 (15:00) 15.6 (00:00) 22.4 6.39 (04:20) 5.83 (04:30) 0 0 0 0 0
19-09-2020 24.2 (16:50) 13.7 (00:00) 19 7.78 (06:40) 6.11 (06:10) 0 0 0 0 0
18-09-2020 22.5 (13:40) 14.1 (00:00) 18.3 6.94 (02:30) 4.72 (01:50) 0 0 0 0 0
17-09-2020 25.8 (16:40) 15.3 (00:00) 20.5 9.72 (12:50) 4.17 (03:40) 0 0 0 0 0
16-09-2020 29.8 (16:00) 22.6 (00:00) 26.2 7.22 (13:30) 4.72 (14:10) 0 0 0 0 0
15-09-2020 27.1 (13:20) 16.5 (00:00) 21.8 8.06 (05:10) 6.67 (05:20) 0 0 0 0 0
14-09-2020 26.9 (13:00) 15.8 (00:00) 21.3 8.61 (23:10) 6.67 (23:10) 0 0 0 0 0
13-09-2020 24.3 (14:10) 15.9 (00:00) 20.1 7.22 (06:50) 5.83 (06:50) 0.2 0.2 0 0 0
12-09-2020 25.8 (16:00) 14.7 (00:00) 20.2 5 (16:40) 3.06 (02:50) 0 0 0 0 0
11-09-2020 26.1 (14:40) 14.8 (00:00) 20.5 6.39 (06:40) 3.89 (06:40) 0 0 0 0 0
10-09-2020 30.5 (12:30) 17.3 (00:00) 23.9 5.83 (00:30) 3.33 (22:40) 0 0 0 0 0
09-09-2020 30.5 (13:00) 21.8 (00:00) 26.1 7.78 (23:00) 4.44 (16:20) 0 0 0 0 0
08-09-2020 32.8 (13:20) 23.7 (00:00) 28.3 10.83 (09:30) 4.72 (02:10) 0 0 0 0 0
07-09-2020 33.4 (13:00) 21.5 (06:00) 27.5 8.06 (02:20) 6.67 (02:30) 0 0 0 0 0
06-09-2020 27.9 (13:00) 14.2 (00:00) 21 5.28 (23:50) 4.44 (23:50) 0 0 0 0 0
05-09-2020 26.7 (13:50) 15.3 (00:00) 21 6.39 (10:20) 3.89 (10:20) 0 0 0 0 0
04-09-2020 30.2 (16:40) 20.2 (00:00) 25.2 6.11 (22:40) 4.17 (22:10) 0 0 0 0 0
03-09-2020 29.4 (12:50) 14.6 (00:00) 22 7.78 (09:40) 6.39 (09:40) 0 0 0 0 0
02-09-2020 27.8 (15:40) 14.8 (00:00) 21.3 7.22 (20:50) 6.11 (20:40) 0 0 0 0 0
01-09-2020 23 (17:20) 15.1 (00:00) 19.1 6.11 (21:40) 3.61 (17:30) 0 0 0 0 0
31-08-2020 20.6 (16:10) 13.1 (00:00) 16.9 6.67 (18:00) 3.61 (17:50) 0 0 0 0 0
30-08-2020 18.6 (17:10) 13.2 (00:00) 15.9 11.39 (05:00) 5.83 (05:00) 4.6 2.6 2 0 0
29-08-2020 22.6 (15:00) 14.8 (00:00) 18.7 8.89 (22:00) 4.72 (18:10) 1.6 0 0 0.8 0.8
28-08-2020 34.2 (13:00) 20.6 (00:00) 27.4 9.17 (10:20) 4.44 (05:30) 0 0 0 0 0
27-08-2020 39.6 (14:20) 27.5 (00:00) 33.5 7.5 (23:50) 4.72 (23:50) 0 0 0 0 0
26-08-2020 38.3 (14:00) 23.9 (00:00) 31.1 12.78 (09:20) 8.61 (09:50) 0 0 0 0 0

Gráficas

Temp. máximas Temp. mínimas Temp. medias Precipitaciones Rachas de viento máximas Velocidades máximas media en intervalos de 10 minutos

Datos horarios

Fecha y hora oficial Temperatura (ºC) Velocidad del viento (km/h) Dirección del viento Racha (km/h) Dirección de racha Precipitación (mm) Presión (hPa) Tendencia (hPa) Humedad (%)
2020-09-24 23:00:00 18.2 0 Calma 13 Sudeste 0 -- -- 74
2020-09-24 22:00:00 17.9 3 Norte 8 Norte 0 -- -- 77
2020-09-24 21:00:00 18 4 Este 7 Este 0 -- -- 86
2020-09-24 20:00:00 18.9 2 Noroeste 14 Sudeste 0 -- -- 86
2020-09-24 19:00:00 21.4 2 Sur 16 Sudeste 0 -- -- 82
2020-09-24 18:00:00 23.5 7 Noroeste 16 Este 0 -- -- 72
2020-09-24 17:00:00 25.9 6 Norte 14 Oeste 0 -- -- 64
2020-09-24 16:00:00 26.2 5 Noroeste 19 Este 0 -- -- 65
2020-09-24 15:00:00 25.4 6 Sudeste 27 Sudoeste 0 -- -- 70
2020-09-24 14:00:00 25.4 6 Noroeste 18 Noroeste 0 -- -- 69
2020-09-24 13:00:00 24.2 4 Nordeste 15 Este 0 -- -- 66
2020-09-24 12:00:00 21.6 16 Este 22 Este 0 -- -- 63
2020-09-24 11:00:00 21.6 6 Norte 13 Norte 0 -- -- 59
2020-09-24 10:00:00 19.5 5 Norte 13 Norte 0 -- -- 71
2020-09-24 09:00:00 17.5 11 Norte 21 Oeste 0 -- -- 82
2020-09-24 08:00:00 17.5 9 Sudoeste 27 Sudeste 1 -- -- 76
2020-09-24 07:00:00 16.6 19 Sudeste 24 Sudeste 0.2 -- -- 85
2020-09-24 06:00:00 17.5 4 Nordeste 17 Noroeste 0 -- -- 74
2020-09-24 05:00:00 19.9 8 Nordeste 20 Sudeste 0 -- -- 59
2020-09-24 04:00:00 19.1 8 Noroeste 18 Norte 0 -- -- 60
2020-09-24 03:00:00 22 4 Oeste 40 Sur 0 -- -- 49
2020-09-24 02:00:00 22.6 25 Sur 49 Sudoeste 0.4 -- -- 46
2020-09-24 01:00:00 18.6 28 Sur 49 Sudoeste 0.8 -- -- 69
2020-09-24 00:00:00 20.2 9 Oeste 35 Oeste 0 -- -- 50
2020-09-23 23:00:00 21 6 Oeste 29 Sudoeste 0 -- -- 47
2020-09-23 22:00:00 19.3 6 Sudeste 26 Oeste 0 -- -- 53
2020-09-23 21:00:00 19.9 14 Oeste 27 Oeste 0 -- -- 48
2020-09-23 20:00:00 23 13 Sudoeste 44 Sudoeste 0 -- -- 43
2020-09-23 19:00:00 19.8 8 Norte 31 Norte 0 -- -- 56
2020-09-23 18:00:00 22.4 19 Noroeste 34 Noroeste 0 -- -- 50
2020-09-23 17:00:00 23.8 21 Noroeste 32 Noroeste 0 -- -- 47
2020-09-23 16:00:00 23.6 19 Noroeste 28 Noroeste 0 -- -- 60
2020-09-23 15:00:00 23.8 11 Noroeste 19 Noroeste 0 -- -- 60
2020-09-23 14:00:00 24.7 10 Noroeste 18 Norte 0 -- -- 41
2020-09-23 13:00:00 25.5 9 Noroeste 17 Noroeste 0 -- -- 34
2020-09-23 12:00:00 24.2 10 Noroeste 16 Noroeste 0 -- -- 43
2020-09-23 11:00:00 23.3 4 Noroeste 10 Noroeste 0 -- -- 51
2020-09-23 10:00:00 21.2 3 Oeste 7 Norte 0 -- -- 42
2020-09-23 09:00:00 19.6 2 Norte 10 Norte 0 -- -- 45
2020-09-23 08:00:00 19.7 0 Calma 11 Sudeste 0 -- -- 38
2020-09-23 07:00:00 19.4 5 Sudeste 12 Este 0 -- -- 39
2020-09-23 06:00:00 21.2 6 Este 13 Sudeste 0 -- -- 21
2020-09-23 05:00:00 22.3 10 Este 15 Este 0 -- -- 18
2020-09-23 04:00:00 21.9 10 Sudeste 13 Sudeste 0 -- -- 19
2020-09-23 03:00:00 22.6 9 Sudeste 13 Sudeste 0 -- -- 20
2020-09-23 02:00:00 20.8 2 Nordeste 5 Norte 0 -- -- 25
2020-09-23 01:00:00 20.8 4 Noroeste 11 Norte 0 -- -- 32
2020-09-23 00:00:00 20.4 4 Noroeste 10 Noroeste 0 -- -- 41
2020-09-22 23:00:00 19.8 7 Noroeste 17 Oeste 0 -- -- 44
2020-09-22 22:00:00 19.6 12 Oeste 15 Oeste 0 -- -- 48
2020-09-22 21:00:00 18.1 5 Noroeste 10 Noroeste 0 -- -- 90
2020-09-22 20:00:00 20.7 6 Noroeste 14 Norte 0 -- -- 49
2020-09-22 19:00:00 21.5 3 Norte 13 Norte 0 -- -- 67
2020-09-22 18:00:00 27.8 4 Norte 11 Norte 0 -- -- 26
2020-09-22 17:00:00 27.5 6 Norte 14 Noroeste 0 -- -- 32
2020-09-22 16:00:00 27.9 8 Noroeste 19 Este 0 -- -- 51
2020-09-22 15:00:00 29.4 11 Sudeste 22 Este 0 -- -- 43
2020-09-22 14:00:00 28.8 13 Este 21 Este 0 -- -- 36
2020-09-22 13:00:00 28.7 13 Este 21 Este 0 -- -- 39
2020-09-22 12:00:00 30.4 10 Este 14 Este 0 -- -- 27
2020-09-22 11:00:00 28.9 9 Sudeste 16 Este 0 -- -- 27
2020-09-22 10:00:00 27.2 8 Este 10 Este 0 -- -- 28
2020-09-22 09:00:00 25.1 8 Sudeste 11 Sudeste 0 -- -- 31
2020-09-22 08:00:00 24.3 7 Sudeste 13 Sudeste 0 -- -- 30
2020-09-22 07:00:00 22.9 12 Sudeste 14 Sudeste 0 -- -- 30
2020-09-22 06:00:00 23.1 7 Sudeste 14 Sudeste 0 -- -- 30
2020-09-22 05:00:00 23.4 3 Sur 10 Sudeste 0 -- -- 26
2020-09-22 04:00:00 23 3 Sudeste 10 Sudeste 0 -- -- 19
2020-09-22 03:00:00 23.1 8 Sudeste 11 Sudeste 0 -- -- 19
2020-09-22 02:00:00 23.2 4 Este 9 Nordeste 0 -- -- 16
2020-09-22 01:00:00 23 3 Sudeste 9 Norte 0 -- -- 11
2020-09-22 00:00:00 23.5 3 Nordeste 8 Norte 0 -- -- 12
2020-09-21 23:00:00 24.4 4 Norte 7 Noroeste 0 -- -- 17
2020-09-21 22:00:00 24.9 5 Noroeste 8 Noroeste 0 -- -- 22
2020-09-21 21:00:00 24.5 5 Oeste 8 Oeste 0 -- -- 30
2020-09-21 20:00:00 25.3 2 Oeste 6 Sudeste 0 -- -- 29
2020-09-21 19:00:00 26.9 5 Oeste 7 Oeste 0 -- -- 41
2020-09-21 18:00:00 27.3 6 Sudeste 12 Este 0 -- -- 49
2020-09-21 17:00:00 29.5 3 Norte 13 Norte 0 -- -- 32
2020-09-21 16:00:00 29 4 Norte 12 Norte 0 -- -- 39
2020-09-21 15:00:00 29.6 7 Sudeste 15 Sudeste 0 -- -- 46
2020-09-21 14:00:00 29.8 4 Norte 12 Sudeste 0 -- -- 44
2020-09-21 13:00:00 29.1 4 Norte 15 Este 0 -- -- 47
2020-09-21 12:00:00 29.3 4 Norte 10 Sudeste 0 -- -- 47
2020-09-21 11:00:00 29.3 9 Sudeste 15 Este 0 -- -- 24
2020-09-21 10:00:00 29.7 4 Sudeste 10 Sudeste 0 -- -- 19
2020-09-21 09:00:00 26.4 7 Sudeste 10 Sudeste 0 -- -- 14
2020-09-21 08:00:00 24.7 5 Este 11 Este 0 -- -- 13
2020-09-21 07:00:00 25.1 0 Calma 6 Sudoeste 0 -- -- 13
2020-09-21 06:00:00 25 3 Sudoeste 6 Sudoeste 0 -- -- 14
2020-09-21 05:00:00 22.1 4 Norte 8 Norte 0 -- -- 14
2020-09-21 04:00:00 22.4 4 Noroeste 6 Norte 0 -- -- 14
2020-09-21 03:00:00 22.1 6 Norte 9 Norte 0 -- -- 15
2020-09-21 02:00:00 21.9 6 Norte 9 Norte 0 -- -- 16
2020-09-21 01:00:00 22.4 4 Noroeste 8 Noroeste 0 -- -- 15
2020-09-21 00:00:00 22.3 5 Norte 9 Noroeste 0 -- -- 15
2020-09-20 23:00:00 22.2 6 Noroeste 8 Noroeste 0 -- -- 18
2020-09-20 22:00:00 22.5 5 Noroeste 10 Norte 0 -- -- 22
2020-09-20 21:00:00 22.2 6 Norte 10 Norte 0 -- -- 20
2020-09-20 20:00:00 23 3 Norte 6 Noroeste 0 -- -- 23
2020-09-20 19:00:00 25.6 3 Oeste 5 Oeste 0 -- -- 57
2020-09-20 18:00:00 26 4 Norte 6 Norte 0 -- -- 60
2020-09-20 17:00:00 27.9 3 Nordeste 10 Este 0 -- -- 55
2020-09-20 16:00:00 29 4 Este 12 Sudeste 0 -- -- 49
2020-09-20 15:00:00 29.3 4 Este 13 Sudeste 0 -- -- 47
2020-09-20 14:00:00 26.7 9 Este 19 Sudeste 0 -- -- 54
2020-09-20 13:00:00 26.9 11 Sudeste 21 Este 0 -- -- 53
2020-09-20 12:00:00 26.3 9 Este 19 Sudeste 0 -- -- 52
2020-09-20 11:00:00 23.2 15 Sudeste 20 Este 0 -- -- 60
2020-09-20 10:00:00 21.6 13 Sudeste 19 Sudeste 0 -- -- 45
2020-09-20 09:00:00 19.8 15 Sudeste 20 Sudeste 0 -- -- 38
2020-09-20 08:00:00 18.2 16 Sudeste 22 Este 0 -- -- 38
2020-09-20 07:00:00 19.4 17 Sudeste 20 Este 0 -- -- 22
2020-09-20 06:00:00 18.6 17 Sudeste 20 Sudeste 0 -- -- 28
2020-09-20 05:00:00 18 19 Sudeste 23 Sudeste 0 -- -- 35
2020-09-20 04:00:00 17.7 19 Sudeste 23 Sudeste 0 -- -- 34
2020-09-20 03:00:00 18.2 20 Este 23 Este 0 -- -- 25
2020-09-20 02:00:00 18.7 19 Sudeste 22 Sudeste 0 -- -- 20
2020-09-20 01:00:00 18.6 17 Sudeste 19 Este 0 -- -- 20
2020-09-20 00:00:00 18.7 8 Sudeste 12 Sudeste 0 -- -- 26
2020-09-19 23:00:00 17.9 13 Sudeste 19 Este 0 -- -- 32
2020-09-19 22:00:00 15.1 15 Sudeste 18 Este 0 -- -- 97
2020-09-19 21:00:00 15.7 6 Sudeste 12 Sudeste 0 -- -- 96
2020-09-19 20:00:00 16.8 10 Sudeste 13 Sudeste 0 -- -- 93
2020-09-19 19:00:00 20.3 6 Sudeste 12 Este 0 -- -- 77
2020-09-19 18:00:00 21.8 8 Sudeste 17 Nordeste 0 -- -- 71
2020-09-19 17:00:00 23.6 9 Sudeste 17 Este 0 -- -- 64
2020-09-19 16:00:00 23.8 9 Sudeste 22 Este 0 -- -- 62
2020-09-19 15:00:00 23.3 13 Este 22 Este 0 -- -- 63
2020-09-19 14:00:00 22.9 14 Este 23 Este 0 -- -- 62
2020-09-19 13:00:00 22.6 13 Este 27 Este 0 -- -- 62
2020-09-19 12:00:00 21.9 15 Sudeste 27 Este 0 -- -- 64
2020-09-19 11:00:00 20.1 18 Este 27 Este 0 -- -- 73
2020-09-19 10:00:00 17.8 14 Este 22 Este 0 -- -- 83
2020-09-19 09:00:00 15.2 14 Sudeste 24 Sudeste 0 -- -- 99
2020-09-19 08:00:00 14.2 14 Sudeste 24 Este 0 -- -- 98
2020-09-19 07:00:00 14.1 22 Sudeste 28 Sudeste 0 -- -- 98
2020-09-19 06:00:00 13.9 20 Sudeste 25 Sudeste 0 -- -- 98
2020-09-19 05:00:00 14.3 14 Sudeste 22 Este 0 -- -- 98
2020-09-19 04:00:00 14.2 15 Este 22 Este 0 -- -- 97
2020-09-19 03:00:00 14 9 Este 16 Este 0 -- -- 98
2020-09-19 02:00:00 14.4 10 Sudeste 15 Sudeste 0 -- -- 96
2020-09-19 01:00:00 14.7 9 Sudeste 14 Este 0 -- -- 95
2020-09-19 00:00:00 14.9 7 Este 13 Este 0 -- -- 94
2020-09-18 23:00:00 15.2 0 Calma 8 Este 0 -- -- 75
2020-09-18 22:00:00 15.2 2 Este 8 Nordeste 0 -- -- 76
2020-09-18 21:00:00 15.5 3 Noroeste 8 Oeste 0 -- -- 92
2020-09-18 20:00:00 17.1 3 Noroeste 10 Norte 0 -- -- 85
2020-09-18 19:00:00 19.6 6 Noroeste 15 Noroeste 0 -- -- 78
2020-09-18 18:00:00 19.5 8 Noroeste 16 Noroeste 0 -- -- 79
2020-09-18 17:00:00 20 9 Norte 19 Norte 0 -- -- 78
2020-09-18 16:00:00 20.3 10 Norte 18 Noroeste 0 -- -- 76
2020-09-18 15:00:00 21 8 Norte 17 Norte 0 -- -- 73
2020-09-18 14:00:00 22.3 9 Norte 19 Norte 0 -- -- 67
2020-09-18 13:00:00 21.4 10 Norte 18 Norte 0 -- -- 68
2020-09-18 12:00:00 21.3 9 Norte 17 Norte 0 -- -- 70
2020-09-18 11:00:00 20.6 5 Norte 14 Nordeste 0 -- -- 72
2020-09-18 10:00:00 17.7 3 Norte 8 Nordeste 0 -- -- 81
2020-09-18 09:00:00 15.9 3 Sudoeste 10 Oeste 0 -- -- 91
2020-09-18 08:00:00 14.4 6 Oeste 13 Oeste 0 -- -- 94
2020-09-18 07:00:00 14.6 9 Noroeste 19 Oeste 0 -- -- 86
2020-09-18 06:00:00 14.4 12 Oeste 21 Oeste 0 -- -- 94
2020-09-18 05:00:00 14.6 12 Oeste 20 Oeste 0 -- -- 92
2020-09-18 04:00:00 14.7 15 Oeste 23 Oeste 0 -- -- 88
2020-09-18 03:00:00 15 12 Noroeste 25 Oeste 0 -- -- 94
2020-09-18 02:00:00 15.2 15 Oeste 25 Noroeste 0 -- -- 95
2020-09-18 01:00:00 15.6 14 Noroeste 23 Noroeste 0 -- -- 94
2020-09-18 00:00:00 15.3 13 Noroeste 20 Oeste 0 -- -- 92
2020-09-17 23:00:00 15.6 12 Noroeste 15 Noroeste 0 -- -- 94
2020-09-17 22:00:00 16.7 8 Oeste 12 Norte 0 -- -- 96
2020-09-17 21:00:00 17.3 5 Noroeste 13 Noroeste 0 -- -- 94
2020-09-17 20:00:00 18.8 6 Noroeste 20 Noroeste 0 -- -- 91
2020-09-17 19:00:00 19.8 6 Noroeste 21 Noroeste 0 -- -- 88
2020-09-17 18:00:00 24 6 Nordeste 19 Noroeste 0 -- -- 69
2020-09-17 17:00:00 23.3 6 Noroeste 22 Noroeste 0 -- -- 71
2020-09-17 16:00:00 24.5 3 Nordeste 23 Noroeste 0 -- -- 66
2020-09-17 15:00:00 24.9 8 Este 23 Noroeste 0 -- -- 64
2020-09-17 14:00:00 24.4 6 Nordeste 23 Sudeste 0 -- -- 65
2020-09-17 13:00:00 20.9 9 Noroeste 35 Noroeste 0 -- -- 80
2020-09-17 12:00:00 21.5 5 Norte 19 Oeste 0 -- -- 78
2020-09-17 11:00:00 20.7 5 Noroeste 24 Norte 0 -- -- 78
2020-09-17 10:00:00 19.2 5 Noroeste 14 Noroeste 0 -- -- 86
2020-09-17 09:00:00 17.9 9 Noroeste 29 Noroeste 0 -- -- 87
2020-09-17 08:00:00 17.5 5 Noroeste 18 Noroeste 0 -- -- 75
2020-09-17 07:00:00 18.7 4 Noroeste 19 Noroeste 0 -- -- 61
2020-09-17 06:00:00 22.8 13 Oeste 19 Oeste 0 -- -- 44
2020-09-17 05:00:00 22.2 10 Noroeste 18 Oeste 0 -- -- 48
2020-09-17 04:00:00 23.1 14 Oeste 22 Noroeste 0 -- -- 45
2020-09-17 03:00:00 22.9 11 Noroeste 24 Oeste 0 -- -- 58
2020-09-17 02:00:00 23.3 14 Oeste 26 Oeste 0 -- -- 45
2020-09-17 01:00:00 23.9 12 Oeste 18 Oeste 0 -- -- 43
2020-09-17 00:00:00 24.6 11 Oeste 15 Oeste 0 -- -- 40
2020-09-16 23:00:00 25.2 9 Oeste 16 Oeste 0 -- -- 38
2020-09-16 22:00:00 25.3 9 Oeste 13 Oeste 0 -- -- 38
2020-09-16 21:00:00 24.4 4 Oeste 8 Oeste 0 -- -- 41
2020-09-16 20:00:00 23.8 5 Oeste 12 Oeste 0 -- -- 45
2020-09-16 19:00:00 24.8 6 Noroeste 13 Norte 0 -- -- 42
2020-09-16 18:00:00 25.5 4 Norte 12 Este 0 -- -- 41
2020-09-16 17:00:00 27.4 9 Este 22 Sudeste 0 -- -- 35
2020-09-16 16:00:00 29.8 6 Este 22 Este 0 -- -- 31
2020-09-16 15:00:00 28.1 12 Este 26 Este 0 -- -- 32
2020-09-16 14:00:00 29 12 Este 26 Este 0 -- -- 31
2020-09-16 13:00:00 27.1 10 Sudeste 26 Sudeste 0 -- -- 36
2020-09-16 12:00:00 24.6 9 Sudeste 24 Sudeste 0 -- -- 40
2020-09-16 11:00:00 23.9 12 Sudeste 23 Este 0 -- -- 41
2020-09-16 10:00:00 23.9 6 Este 18 Sudeste 0 -- -- 38
2020-09-16 09:00:00 23.2 4 Nordeste 21 Este 0 -- -- 34
2020-09-16 08:00:00 22.9 9 Nordeste 24 Nordeste 0 -- -- 33
2020-09-16 07:00:00 23.1 8 Este 18 Nordeste 0 -- -- 30
2020-09-16 06:00:00 23.4 8 Nordeste 18 Norte 0 -- -- 28
2020-09-16 05:00:00 23.5 8 Nordeste 25 Norte 0 -- -- 23
2020-09-16 04:00:00 23.4 9 Este 25 Norte 0 -- -- 23
2020-09-16 03:00:00 23.4 9 Sudeste 24 Sudeste 0 -- -- 23
2020-09-16 02:00:00 23.3 9 Este 23 Sudeste 0 -- -- 23
2020-09-16 01:00:00 23.5 8 Este 24 Este 0 -- -- 20
2020-09-16 00:00:00 23.4 6 Norte 22 Nordeste 0 -- -- 21
2020-09-15 23:00:00 22.9 5 Norte 21 Noroeste 0 -- -- 24
2020-09-15 22:00:00 22.8 6 Sudoeste 28 Norte 0 -- -- 24
2020-09-15 21:00:00 23.4 9 Noroeste 21 Norte 0 -- -- 23
2020-09-15 20:00:00 23.9 5 Sudoeste 16 Norte 0 -- -- 22
2020-09-15 19:00:00 24.9 6 Noroeste 17 Noroeste 0 -- -- 25
2020-09-15 18:00:00 25.9 7 Noroeste 15 Noroeste 0 -- -- 18
2020-09-15 17:00:00 26.3 4 Este 16 Norte 0 -- -- 44
2020-09-15 16:00:00 24.6 4 Noroeste 14 Este 0 -- -- 54
2020-09-15 15:00:00 25.3 4 Sudeste 14 Este 0 -- -- 53
2020-09-15 14:00:00 23.1 6 Este 25 Sudeste 0 -- -- 34
2020-09-15 13:00:00 26.7 4 Sur 27 Este 0 -- -- 31
2020-09-15 12:00:00 22.5 8 Este 24 Este 0 -- -- 56
2020-09-15 11:00:00 24.7 10 Sudeste 21 Sudeste 0 -- -- 35
2020-09-15 10:00:00 20.9 3 Sudeste 7 Nordeste 0 -- -- 49
2020-09-15 09:00:00 20.1 4 Nordeste 8 Nordeste 0 -- -- 53
2020-09-15 08:00:00 19.1 5 Sudeste 11 Sudeste 0 -- -- 53
2020-09-15 07:00:00 18.5 4 Sudeste 12 Sudeste 0 -- -- 56
2020-09-15 06:00:00 17.1 8 Sudeste 29 Sudeste 0 -- -- 69
2020-09-15 05:00:00 17.1 21 Sudeste 28 Este 0 -- -- 68
2020-09-15 04:00:00 16.7 21 Sudeste 25 Sudeste 0 -- -- 75
2020-09-15 03:00:00 16.7 19 Sudeste 26 Sudeste 0 -- -- 75
2020-09-15 02:00:00 17.9 7 Sudoeste 17 Noroeste 0 -- -- 66
2020-09-15 01:00:00 19.4 12 Noroeste 21 Norte 0 -- -- 57
2020-09-15 00:00:00 18.9 18 Sudeste 31 Sudeste 0 -- -- 58
2020-09-14 23:00:00 18.8 23 Sudeste 30 Sudeste 0 -- -- 58
2020-09-14 22:00:00 18.7 11 Sudeste 27 Este 0 -- -- 58
2020-09-14 21:00:00 19.1 13 Este 22 Este 0 -- -- 58
2020-09-14 20:00:00 19.1 13 Sudeste 19 Este 0 -- -- 58
2020-09-14 19:00:00 20.4 10 Sudeste 16 Este 0 -- -- 60
2020-09-14 18:00:00 23.5 10 Sudeste 17 Este 0 -- -- 52
2020-09-14 17:00:00 24.8 7 Este 21 Este 0 -- -- 45
2020-09-14 16:00:00 24.7 12 Este 22 Este 0 -- -- 51
2020-09-14 15:00:00 24.6 12 Este 24 Sudeste 0 -- -- 52
2020-09-14 14:00:00 24.7 11 Este 24 Este 0 -- -- 51
2020-09-14 13:00:00 26.9 7 Sudeste 20 Este 0 -- -- 46
2020-09-14 12:00:00 26.7 4 Sudeste 13 Este 0 -- -- 50
2020-09-14 11:00:00 24.4 3 Norte 14 Este 0 -- -- 51
2020-09-14 10:00:00 21.6 9 Sudeste 13 Sudeste 0 -- -- 56
2020-09-14 09:00:00 18.7 0 Calma 5 Sudeste 0 -- -- 61
2020-09-14 08:00:00 16.6 2 Este 6 Sudeste 0 -- -- 70
2020-09-14 07:00:00 16.2 5 Sudeste 12 Este 0 -- -- 78
2020-09-14 06:00:00 16.1 7 Sudeste 10 Sudeste 0 -- -- 81
2020-09-14 05:00:00 15.9 6 Sudeste 10 Sudeste 0 -- -- 81
2020-09-14 04:00:00 16.8 2 Oeste 11 Oeste 0 -- -- 78
2020-09-14 03:00:00 16.5 8 Oeste 12 Oeste 0 -- -- 82
2020-09-14 02:00:00 16.9 6 Noroeste 11 Noroeste 0 -- -- 80
2020-09-14 01:00:00 16.8 6 Oeste 10 Oeste 0 -- -- 80
2020-09-14 00:00:00 17 6 Noroeste 11 Oeste 0 -- -- 82
2020-09-13 23:00:00 17.2 6 Oeste 10 Noroeste 0 -- -- 83
2020-09-13 22:00:00 17.1 6 Oeste 13 Oeste 0 -- -- 92
2020-09-13 21:00:00 17.7 6 Noroeste 11 Noroeste 0 -- -- 91
2020-09-13 20:00:00 18.1 5 Norte 9 Noroeste 0 -- -- 92
2020-09-13 19:00:00 19.2 4 Noroeste 10 Noroeste 0 -- -- 91
2020-09-13 18:00:00 23.3 2 Este 9 Sudeste 0 -- -- 75
2020-09-13 17:00:00 20.6 4 Noroeste 9 Noroeste 0 -- -- 83
2020-09-13 16:00:00 20.3 2 Sudeste 10 Norte 0 -- -- 85
2020-09-13 15:00:00 21.5 4 Norte 15 Norte 0 -- -- 78
2020-09-13 14:00:00 24 9 Noroeste 17 Este 0 -- -- 70
2020-09-13 13:00:00 23 3 Norte 10 Oeste 0 -- -- 71
2020-09-13 12:00:00 21.6 5 Norte 14 Sudeste 0 -- -- 72
2020-09-13 11:00:00 19.3 4 Nordeste 17 Sudeste 0 -- -- 80
2020-09-13 10:00:00 18.5 6 Norte 19 Noroeste 0 -- -- 78
2020-09-13 09:00:00 17.4 17 Sudeste 22 Sudeste 0 -- -- 79
2020-09-13 08:00:00 16.8 8 Noroeste 14 Sudeste 0 -- -- 82
2020-09-13 07:00:00 16.7 15 Sudeste 26 Sudeste 0 -- -- 82
2020-09-13 06:00:00 16 14 Este 19 Sudeste 0 -- -- 89
2020-09-13 05:00:00 16.1 8 Noroeste 13 Noroeste 0 -- -- 89
2020-09-13 04:00:00 16.3 8 Noroeste 14 Sudeste 0.2 -- -- 87
2020-09-13 03:00:00 17 5 Noroeste 15 Oeste 0 -- -- 80
2020-09-13 02:00:00 16.5 9 Sudeste 17 Este 0 -- -- 80
2020-09-13 01:00:00 16.3 14 Sudeste 19 Sudeste 0 -- -- 82
2020-09-13 00:00:00 16.1 7 Noroeste 10 Noroeste 0 -- -- 83
2020-09-12 23:00:00 16.3 5 Oeste 10 Oeste 0 -- -- 83
2020-09-12 22:00:00 16.4 5 Noroeste 9 Sudeste 0 -- -- 87
2020-09-12 21:00:00 16.2 4 Sudeste 7 Sudeste 0 -- -- 88
2020-09-12 20:00:00 17.4 5 Noroeste 14 Noroeste 0 -- -- 86
2020-09-12 19:00:00 18.8 7 Noroeste 15 Noroeste 0 -- -- 80
2020-09-12 18:00:00 21 8 Noroeste 15 Noroeste 0 -- -- 72
2020-09-12 17:00:00 24 5 Este 18 Este 0 -- -- 60
2020-09-12 16:00:00 25.8 4 Sudeste 15 Sudeste 0 -- -- 55
2020-09-12 15:00:00 24.2 4 Nordeste 12 Sudeste 0 -- -- 60
2020-09-12 14:00:00 22.4 5 Norte 12 Norte 0 -- -- 64
2020-09-12 13:00:00 22.8 8 Noroeste 15 Norte 0 -- -- 63
2020-09-12 12:00:00 22.4 5 Noroeste 11 Norte 0 -- -- 64
2020-09-12 11:00:00 21.1 4 Norte 8 Norte 0 -- -- 69
2020-09-12 10:00:00 18.9 3 Noroeste 9 Noroeste 0 -- -- 73
2020-09-12 09:00:00 16.8 2 Nordeste 10 Norte 0 -- -- 80
2020-09-12 08:00:00 15.6 4 Noroeste 8 Sudeste 0 -- -- 94
2020-09-12 07:00:00 15.1 2 Sudeste 7 Nordeste 0 -- -- 96
2020-09-12 06:00:00 15.4 0 Calma 9 Noroeste 0 -- -- 96
2020-09-12 05:00:00 15.6 7 Oeste 16 Noroeste 0 -- -- 96
2020-09-12 04:00:00 15.2 9 Noroeste 17 Oeste 0 -- -- 95
2020-09-12 03:00:00 15.6 10 Noroeste 17 Oeste 0 -- -- 95
2020-09-12 02:00:00 16 8 Noroeste 13 Noroeste 0 -- -- 93
2020-09-12 01:00:00 18.6 8 Noroeste 12 Noroeste 0 -- -- 61
2020-09-12 00:00:00 15.9 6 Oeste 12 Oeste 0 -- -- 92
2020-09-11 23:00:00 16.5 5 Oeste 10 Norte 0 -- -- 88
2020-09-11 22:00:00 21.2 6 Noroeste 9 Noroeste 0 -- -- 36
2020-09-11 21:00:00 16.9 4 Noroeste 10 Oeste 0 -- -- 92
2020-09-11 20:00:00 17.9 7 Noroeste 12 Noroeste 0 -- -- 86
2020-09-11 19:00:00 21.7 2 Noroeste 12 Noroeste 0 -- -- 70
2020-09-11 18:00:00 21.5 6 Noroeste 12 Noroeste 0 -- -- 70
2020-09-11 17:00:00 24.5 5 Noroeste 13 Noroeste 0 -- -- 58
2020-09-11 16:00:00 24.3 5 Noroeste 12 Noroeste 0 -- -- 60
2020-09-11 15:00:00 25.3 5 Noroeste 12 Noroeste 0 -- -- 55
2020-09-11 14:00:00 25.1 6 Noroeste 11 Oeste 0 -- -- 52
2020-09-11 13:00:00 23.1 6 Noroeste 13 Norte 0 -- -- 64
2020-09-11 12:00:00 22.2 6 Noroeste 11 Noroeste 0 -- -- 66
2020-09-11 11:00:00 21.1 6 Noroeste 11 Norte 0 -- -- 69
2020-09-11 10:00:00 20.1 4 Oeste 10 Noroeste 0 -- -- 70
2020-09-11 09:00:00 16.3 4 Noroeste 9 Norte 0 -- -- 90
2020-09-11 08:00:00 14.9 5 Noroeste 16 Oeste 0 -- -- 95
2020-09-11 07:00:00 15.6 12 Oeste 23 Oeste 0 -- -- 96
2020-09-11 06:00:00 15.5 9 Noroeste 15 Noroeste 0 -- -- 95
2020-09-11 05:00:00 15.4 6 Oeste 9 Oeste 0 -- -- 94
2020-09-11 04:00:00 15.2 6 Noroeste 9 Noroeste 0 -- -- 93
2020-09-11 03:00:00 21 4 Oeste 10 Sudoeste 0 -- -- 43
2020-09-11 02:00:00 20.5 4 Sudoeste 8 Sudoeste 0 -- -- 19
2020-09-11 01:00:00 21.7 4 Oeste 11 Oeste 0 -- -- 20
2020-09-11 00:00:00 22.5 6 Noroeste 20 Oeste 0 -- -- 18
2020-09-10 23:00:00 23.5 10 Noroeste 17 Oeste 0 -- -- 14
2020-09-10 22:00:00 20.9 9 Oeste 18 Oeste 0 -- -- 38
2020-09-10 21:00:00 17.8 6 Oeste 14 Oeste 0 -- -- 79
2020-09-10 20:00:00 19.5 4 Oeste 10 Noroeste 0 -- -- 78
2020-09-10 19:00:00 26.2 4 Noroeste 10 Norte 0 -- -- 46
2020-09-10 18:00:00 28.4 8 Noroeste 14 Noroeste 0 -- -- 22
2020-09-10 17:00:00 29.6 6 Norte 16 Noroeste 0 -- -- 30
2020-09-10 16:00:00 29.1 8 Norte 12 Noroeste 0 -- -- 39
2020-09-10 15:00:00 28.2 4 Nordeste 13 Sudeste 0 -- -- 48
2020-09-10 14:00:00 27.8 4 Nordeste 13 Nordeste 0 -- -- 49
2020-09-10 13:00:00 29.2 5 Norte 12 Este 0 -- -- 44
2020-09-10 12:00:00 29.2 7 Norte 13 Norte 0 -- -- 19
2020-09-10 11:00:00 27.8 3 Noroeste 10 Noroeste 0 -- -- 23
2020-09-10 10:00:00 25.7 5 Noroeste 12 Oeste 0 -- -- 22
2020-09-10 09:00:00 22.4 5 Noroeste 19 Norte 0 -- -- 28
2020-09-10 08:00:00 20.8 7 Noroeste 12 Noroeste 0 -- -- 27
2020-09-10 07:00:00 21.3 6 Noroeste 12 Nordeste 0 -- -- 24
2020-09-10 06:00:00 22.4 4 Noroeste 13 Norte 0 -- -- 22
2020-09-10 05:00:00 23 5 Noroeste 21 Este 0 -- -- 21
2020-09-10 04:00:00 23 5 Este 14 Nordeste 0 -- -- 21
2020-09-10 03:00:00 22.8 8 Este 15 Este 0 -- -- 22
2020-09-10 02:00:00 23.3 7 Este 18 Sudeste 0 -- -- 20
2020-09-10 01:00:00 23.5 9 Sudeste 21 Sudeste 0 -- -- 20
2020-09-10 00:00:00 22.8 12 Sudeste 23 Sudeste 0 -- -- 21
2020-09-09 23:00:00 24.9 11 Sudeste 28 Sudeste 0 -- -- 15
2020-09-09 22:00:00 23.7 10 Sudeste 23 Este 0 -- -- 19
2020-09-09 21:00:00 25.7 13 Este 24 Este 0 -- -- 16
2020-09-09 20:00:00 24.7 12 Sudeste 18 Sudeste 0 -- -- 19
2020-09-09 19:00:00 25.8 13 Este 19 Este 0 -- -- 34
2020-09-09 18:00:00 27.5 13 Sudeste 22 Sudeste 0 -- -- 29
2020-09-09 17:00:00 28.2 12 Este 26 Este 0 -- -- 27
2020-09-09 16:00:00 29.5 14 Este 24 Sudeste 0 -- -- 23
2020-09-09 15:00:00 30.2 14 Sudeste 24 Este 0 -- -- 19
2020-09-09 14:00:00 29.6 14 Sudeste 23 Este 0 -- -- 22
2020-09-09 13:00:00 30.5 11 Este 24 Sudeste 0 -- -- 24
2020-09-09 12:00:00 29.9 11 Sudeste 20 Sudeste 0 -- -- 26
2020-09-09 11:00:00 29.5 10 Sudeste 20 Este 0 -- -- 25
2020-09-09 10:00:00 28.1 10 Sudeste 21 Este 0 -- -- 28
2020-09-09 09:00:00 25.2 10 Sudeste 21 Sudeste 0 -- -- 31
2020-09-09 08:00:00 22.5 12 Sudeste 20 Sudeste 0 -- -- 35
2020-09-09 07:00:00 22.2 6 Sudeste 21 Sudeste 0 -- -- 35
2020-09-09 06:00:00 22.2 9 Sudeste 18 Sudeste 0 -- -- 36
2020-09-09 05:00:00 22.4 9 Sudeste 20 Este 0 -- -- 37
2020-09-09 04:00:00 21.8 8 Sudeste 14 Este 0 -- -- 39
2020-09-09 03:00:00 22.5 9 Este 18 Sudeste 0 -- -- 35
2020-09-09 02:00:00 23.7 8 Este 22 Este 0 -- -- 27
2020-09-09 01:00:00 24.2 10 Este 15 Sudeste 0 -- -- 25
2020-09-09 00:00:00 24.6 10 Sudeste 15 Sudeste 0 -- -- 29
2020-09-08 23:00:00 23.8 10 Sudeste 13 Sudeste 0 -- -- 26
2020-09-08 22:00:00 24 9 Sudeste 22 Sudeste 0 -- -- 25
2020-09-08 21:00:00 25.1 14 Sudeste 22 Sudeste 0 -- -- 26
2020-09-08 20:00:00 25.4 12 Sudeste 15 Sudeste 0 -- -- 27
2020-09-08 19:00:00 28.7 10 Sudeste 16 Este 0 -- -- 21
2020-09-08 18:00:00 30.7 9 Este 17 Este 0 -- -- 17
2020-09-08 17:00:00 32.4 8 Sudeste 18 Sudeste 0 -- -- 17
2020-09-08 16:00:00 32.2 11 Sudeste 22 Sudeste 0 -- -- 18
2020-09-08 15:00:00 30.8 13 Este 23 Sudeste 0 -- -- 19
2020-09-08 14:00:00 31.7 14 Sudeste 26 Este 0 -- -- 18
2020-09-08 13:00:00 32.3 15 Este 25 Sudeste 0 -- -- 17
2020-09-08 12:00:00 32.3 13 Este 22 Sudeste 0 -- -- 18
2020-09-08 11:00:00 30.3 13 Sudeste 27 Este 0 -- -- 24
2020-09-08 10:00:00 30.6 12 Sudeste 39 Este 0 -- -- 13
2020-09-08 09:00:00 28 12 Sudeste 27 Sudeste 0 -- -- 12
2020-09-08 08:00:00 26.9 14 Sudeste 33 Sudeste 0 -- -- 13
2020-09-08 07:00:00 26.4 15 Sudeste 27 Sudeste 0 -- -- 15
2020-09-08 06:00:00 25.9 14 Sudeste 28 Sudeste 0 -- -- 16
2020-09-08 05:00:00 26 17 Sudeste 29 Este 0 -- -- 17
2020-09-08 04:00:00 25 11 Sudeste 23 Sudeste 0 -- -- 18
2020-09-08 03:00:00 24.5 15 Sudeste 24 Sudeste 0 -- -- 23
2020-09-08 02:00:00 24.5 16 Sudeste 26 Sudeste 0 -- -- 26
2020-09-08 01:00:00 24.4 14 Sudeste 24 Sudeste 0 -- -- 25
2020-09-08 00:00:00 24.2 13 Sudeste 25 Sudeste 0 -- -- 31
2020-09-07 23:00:00 24.9 14 Sudeste 19 Sudeste 0 -- -- 28
2020-09-07 22:00:00 24.7 12 Este 19 Sudeste 0 -- -- 30
2020-09-07 21:00:00 25.4 6 Este 13 Sudeste 0 -- -- 28
2020-09-07 20:00:00 25.6 9 Sudeste 17 Sudeste 0 -- -- 27
2020-09-07 19:00:00 27.2 7 Sudeste 13 Este 0 -- -- 33
2020-09-07 18:00:00 25.9 8 Sudeste 14 Este 0 -- -- 57
2020-09-07 17:00:00 27.8 10 Sudeste 17 Este 0 -- -- 52
2020-09-07 16:00:00 30.9 11 Este 19 Sudeste 0 -- -- 38
2020-09-07 15:00:00 32.5 7 Este 14 Este 0 -- -- 31
2020-09-07 14:00:00 31.1 7 Este 14 Este 0 -- -- 33
2020-09-07 13:00:00 33.4 8 Norte 13 Noroeste 0 -- -- 28
2020-09-07 12:00:00 31.6 6 Noroeste 11 Norte 0 -- -- 35
2020-09-07 11:00:00 31.1 5 Norte 8 Norte 0 -- -- 24
2020-09-07 10:00:00 29.7 3 Noroeste 7 Sudeste 0 -- -- 32
2020-09-07 09:00:00 26.9 5 Este 14 Sudeste 0 -- -- 36
2020-09-07 08:00:00 23.4 14 Sudeste 23 Sudeste 0 -- -- 38
2020-09-07 07:00:00 23.1 17 Sudeste 25 Sudeste 0 -- -- 33
2020-09-07 06:00:00 21.5 18 Sudeste 24 Sudeste 0 -- -- 31
2020-09-07 05:00:00 22 9 Sudeste 26 Este 0 -- -- 33
2020-09-07 04:00:00 24.8 10 Noroeste 22 Sudeste 0 -- -- 30
2020-09-07 03:00:00 24.5 19 Sudeste 29 Sudeste 0 -- -- 26
2020-09-07 02:00:00 22.2 21 Sudeste 26 Este 0 -- -- 25
2020-09-07 01:00:00 24 18 Sudeste 22 Sudeste 0 -- -- 27
2020-09-07 00:00:00 22.7 14 Sudeste 19 Sudeste 0 -- -- 35
2020-09-06 23:00:00 22.5 7 Sudeste 12 Sudeste 0 -- -- 35
2020-09-06 22:00:00 21 9 Sudeste 12 Este 0 -- -- 63
2020-09-06 21:00:00 21.5 8 Sudeste 11 Sudeste 0 -- -- 63
2020-09-06 20:00:00 23 0 Calma 6 Este 0 -- -- 69
2020-09-06 19:00:00 24.5 4 Este 13 Este 0 -- -- 65
2020-09-06 18:00:00 26.6 3 Este 11 Oeste 0 -- -- 59
2020-09-06 17:00:00 26.1 4 Nordeste 13 Sudeste 0 -- -- 60
2020-09-06 16:00:00 26.9 5 Este 12 Sudeste 0 -- -- 58
2020-09-06 15:00:00 27.1 6 Este 15 Este 0 -- -- 55
2020-09-06 14:00:00 26.6 4 Nordeste 17 Este 0 -- -- 56
2020-09-06 13:00:00 27.9 4 Este 16 Este 0 -- -- 50
2020-09-06 12:00:00 26.5 4 Este 16 Este 0 -- -- 54
2020-09-06 11:00:00 25 5 Este 13 Nordeste 0 -- -- 54
2020-09-06 10:00:00 22.9 5 Sudeste 12 Sudeste 0 -- -- 45
2020-09-06 09:00:00 19.9 6 Sudeste 12 Sudeste 0 -- -- 52
2020-09-06 08:00:00 16.3 3 Nordeste 16 Sudeste 0 -- -- 61
2020-09-06 07:00:00 15 5 Nordeste 13 Oeste 0 -- -- 97
2020-09-06 06:00:00 14.8 6 Noroeste 13 Oeste 0 -- -- 96
2020-09-06 05:00:00 15 8 Noroeste 14 Noroeste 0 -- -- 91
2020-09-06 04:00:00 15.1 6 Oeste 10 Noroeste 0 -- -- 94
2020-09-06 03:00:00 15.7 0 Calma 9 Oeste 0 -- -- 96
2020-09-06 02:00:00 15.6 4 Noroeste 10 Noroeste 0 -- -- 96
2020-09-06 01:00:00 15.4 7 Noroeste 12 Noroeste 0 -- -- 95
2020-09-06 00:00:00 15.6 7 Noroeste 10 Noroeste 0 -- -- 94
2020-09-05 23:00:00 16.4 6 Noroeste 12 Noroeste 0 -- -- 86
2020-09-05 22:00:00 16.3 7 Noroeste 13 Noroeste 0 -- -- 94
2020-09-05 21:00:00 17.1 9 Noroeste 13 Noroeste 0 -- -- 92
2020-09-05 20:00:00 18.2 9 Noroeste 14 Noroeste 0 -- -- 87
2020-09-05 19:00:00 21.1 9 Noroeste 14 Noroeste 0 -- -- 73
2020-09-05 18:00:00 23 8 Noroeste 15 Noroeste 0 -- -- 67
2020-09-05 17:00:00 24.6 8 Noroeste 19 Oeste 0 -- -- 61
2020-09-05 16:00:00 26.1 11 Noroeste 17 Noroeste 0 -- -- 58
2020-09-05 15:00:00 25.4 8 Noroeste 15 Noroeste 0 -- -- 60
2020-09-05 14:00:00 25.2 5 Norte 17 Sudeste 0 -- -- 61
2020-09-05 13:00:00 24.5 6 Norte 12 Norte 0 -- -- 63
2020-09-05 12:00:00 25.2 6 Este 19 Este 0 -- -- 59
2020-09-05 11:00:00 25.2 5 Este 23 Este 0 -- -- 58
2020-09-05 10:00:00 24.6 9 Este 16 Este 0 -- -- 57
2020-09-05 09:00:00 22.1 6 Sudeste 14 Sudeste 0 -- -- 34
2020-09-05 08:00:00 16.4 5 Nordeste 9 Norte 0 -- -- 84
2020-09-05 07:00:00 17.8 3 Noroeste 11 Sudeste 0 -- -- 72
2020-09-05 06:00:00 18.3 9 Sudeste 15 Sudeste 0 -- -- 50
2020-09-05 05:00:00 22.6 6 Noroeste 9 Oeste 0 -- -- 24
2020-09-05 04:00:00 23 8 Oeste 15 Oeste 0 -- -- 23
2020-09-05 03:00:00 22.7 11 Oeste 16 Oeste 0 -- -- 24
2020-09-05 02:00:00 23.3 11 Oeste 17 Oeste 0 -- -- 22
2020-09-05 01:00:00 23.7 12 Noroeste 21 Oeste 0 -- -- 22
2020-09-05 00:00:00 23.7 13 Oeste 18 Noroeste 0 -- -- 22
2020-09-04 23:00:00 24 13 Noroeste 22 Oeste 0 -- -- 22
2020-09-04 22:00:00 24.1 14 Oeste 21 Oeste 0 -- -- 22
2020-09-04 21:00:00 24.4 14 Oeste 20 Oeste 0 -- -- 22
2020-09-04 20:00:00 25.8 10 Oeste 14 Oeste 0 -- -- 21
2020-09-04 19:00:00 27.6 9 Noroeste 16 Oeste 0 -- -- 31
2020-09-04 18:00:00 29 10 Noroeste 16 Noroeste 0 -- -- 26
2020-09-04 17:00:00 29.3 9 Noroeste 15 Noroeste 0 -- -- 32
2020-09-04 16:00:00 29.3 8 Noroeste 14 Noroeste 0 -- -- 34
2020-09-04 15:00:00 27.2 8 Noroeste 13 Noroeste 0 -- -- 42
2020-09-04 14:00:00 27.7 6 Noroeste 12 Noroeste 0 -- -- 43
2020-09-04 13:00:00 26.4 5 Norte 9 Norte 0 -- -- 53
2020-09-04 12:00:00 26 5 Norte 10 Norte 0 -- -- 52
2020-09-04 11:00:00 24.2 3 Norte 8 Noroeste 0 -- -- 55
2020-09-04 10:00:00 24 5 Noroeste 10 Noroeste 0 -- -- 39
2020-09-04 09:00:00 21.8 7 Noroeste 11 Oeste 0 -- -- 42
2020-09-04 08:00:00 20.7 9 Oeste 12 Oeste 0 -- -- 42
2020-09-04 07:00:00 20.2 8 Oeste 10 Oeste 0 -- -- 38
2020-09-04 06:00:00 20.8 8 Oeste 13 Oeste 0 -- -- 30
2020-09-04 05:00:00 21.3 10 Oeste 13 Oeste 0 -- -- 24
2020-09-04 04:00:00 21.2 9 Oeste 12 Oeste 0 -- -- 16
2020-09-04 03:00:00 21.4 7 Noroeste 10 Noroeste 0 -- -- 14
2020-09-04 02:00:00 21.2 9 Noroeste 10 Noroeste 0 -- -- 14
2020-09-04 01:00:00 22.2 5 Noroeste 8 Norte 0 -- -- 11
2020-09-04 00:00:00 21.8 3 Nordeste 6 Norte 0 -- -- 11
2020-09-03 23:00:00 22.1 0 Calma 4 Oeste 0 -- -- 23
2020-09-03 22:00:00 21.5 0 Calma 3 Sudoeste 0 -- -- 41
2020-09-03 21:00:00 21.9 0 Calma 5 Este 0 -- -- 58
2020-09-03 20:00:00 24.6 2 Sudeste 5 Este 0 -- -- 62
2020-09-03 19:00:00 25.1 0 Calma 8 Este 0 -- -- 62
2020-09-03 18:00:00 26.2 3 Nordeste 12 Este 0 -- -- 59
2020-09-03 17:00:00 26.6 4 Nordeste 15 Este 0 -- -- 57
2020-09-03 16:00:00 28.7 5 Sudeste 15 Este 0 -- -- 49
2020-09-03 15:00:00 26.8 10 Este 19 Este 0 -- -- 53
2020-09-03 14:00:00 27.7 7 Este 18 Sudeste 0 -- -- 48
2020-09-03 13:00:00 28.3 9 Sudeste 16 Sudeste 0 -- -- 46
2020-09-03 12:00:00 25.6 12 Este 19 Sudeste 0 -- -- 54
2020-09-03 11:00:00 22.7 11 Sudeste 24 Este 0 -- -- 65
2020-09-03 10:00:00 18.6 21 Sudeste 28 Sudeste 0 -- -- 81
2020-09-03 09:00:00 16.3 14 Sudeste 26 Este 0 -- -- 94
2020-09-03 08:00:00 14.7 19 Sudeste 24 Este 0 -- -- 93
2020-09-03 07:00:00 17.3 3 Sudeste 10 Sudeste 0 -- -- 20
2020-09-03 06:00:00 18.4 9 Sudeste 12 Sudeste 0 -- -- 25
2020-09-03 05:00:00 16.8 13 Sudeste 18 Sudeste 0 -- -- 20
2020-09-03 04:00:00 18 10 Sudeste 19 Sudeste 0 -- -- 21
2020-09-03 03:00:00 18.2 15 Sudeste 18 Sudeste 0 -- -- 37
2020-09-03 02:00:00 19.3 12 Sudeste 16 Sudeste 0 -- -- 40
2020-09-03 01:00:00 18.7 12 Sudeste 19 Sudeste 0 -- -- 73
2020-09-03 00:00:00 18.1 9 Sudeste 22 Sudeste 0 -- -- 74
2020-09-02 23:00:00 18.4 16 Sudeste 21 Sudeste 0 -- -- 72
2020-09-02 22:00:00 17.6 20 Sudeste 24 Este 0 -- -- 59
2020-09-02 21:00:00 17.4 22 Sudeste 26 Este 0 -- -- 82
2020-09-02 20:00:00 18.8 17 Sudeste 21 Sudeste 0 -- -- 86
2020-09-02 19:00:00 22 13 Este 18 Este 0 -- -- 73
2020-09-02 18:00:00 24.4 5 Este 16 Este 0 -- -- 64
2020-09-02 17:00:00 25.9 6 Sudeste 13 Este 0 -- -- 59
2020-09-02 16:00:00 27.4 6 Sudeste 13 Sudeste 0 -- -- 52
2020-09-02 15:00:00 27.2 4 Nordeste 10 Nordeste 0 -- -- 54
2020-09-02 14:00:00 26.6 5 Este 14 Este 0 -- -- 57
2020-09-02 13:00:00 26.5 5 Este 12 Este 0 -- -- 58
2020-09-02 12:00:00 26.1 3 Nordeste 10 Sudeste 0 -- -- 57
2020-09-02 11:00:00 25.7 3 Este 10 Sudeste 0 -- -- 53
2020-09-02 10:00:00 23.9 5 Sudeste 9 Este 0 -- -- 57
2020-09-02 09:00:00 23.1 5 Sudeste 15 Sudeste 0 -- -- 29
2020-09-02 08:00:00 19 14 Sudeste 18 Sudeste 0 -- -- 32
2020-09-02 07:00:00 18.7 16 Este 20 Este 0 -- -- 39
2020-09-02 06:00:00 19.4 11 Sudeste 23 Sudeste 0 -- -- 33
2020-09-02 05:00:00 18.5 19 Sudeste 23 Sudeste 0 -- -- 46
2020-09-02 04:00:00 17.8 18 Sudeste 21 Sudeste 0 -- -- 49
2020-09-02 03:00:00 18.2 11 Este 13 Este 0 -- -- 50
2020-09-02 02:00:00 19.2 3 Nordeste 6 Oeste 0 -- -- 37
2020-09-02 01:00:00 15.3 6 Oeste 10 Norte 0 -- -- 63
2020-09-02 00:00:00 15.8 7 Oeste 12 Noroeste 0 -- -- 98
2020-09-01 23:00:00 15.6 10 Noroeste 17 Noroeste 0 -- -- 97
2020-09-01 22:00:00 16.5 11 Noroeste 22 Noroeste 0 -- -- 96
2020-09-01 21:00:00 17 13 Noroeste 21 Oeste 0 -- -- 96
2020-09-01 20:00:00 17.7 11 Noroeste 17 Noroeste 0 -- -- 92
2020-09-01 19:00:00 19.6 10 Noroeste 18 Oeste 0 -- -- 87
2020-09-01 18:00:00 20.8 11 Noroeste 21 Norte 0 -- -- 81
2020-09-01 17:00:00 21.1 10 Noroeste 16 Noroeste 0 -- -- 81
2020-09-01 16:00:00 19.4 9 Noroeste 16 Noroeste 0 -- -- 87
2020-09-01 15:00:00 20.1 8 Noroeste 14 Noroeste 0 -- -- 85
2020-09-01 14:00:00 20.8 7 Noroeste 13 Noroeste 0 -- -- 82
2020-09-01 13:00:00 19 6 Noroeste 14 Noroeste 0 -- -- 86
2020-09-01 12:00:00 19.3 7 Noroeste 12 Norte 0 -- -- 86
2020-09-01 11:00:00 19.1 5 Noroeste 12 Noroeste 0 -- -- 88
2020-09-01 10:00:00 17.2 7 Noroeste 13 Noroeste 0 -- -- 97
2020-09-01 09:00:00 16.5 7 Noroeste 13 Oeste 0 -- -- 96
2020-09-01 08:00:00 16.1 5 Oeste 12 Oeste 0 -- -- 95
2020-09-01 07:00:00 16 9 Oeste 14 Noroeste 0 -- -- 94
2020-09-01 06:00:00 15.8 3 Oeste 10 Oeste 0 -- -- 92
2020-09-01 05:00:00 15.5 4 Sudoeste 10 Oeste 0 -- -- 94
2020-09-01 04:00:00 15.5 3 Noroeste 8 Oeste 0 -- -- 97
2020-09-01 03:00:00 15.3 4 Oeste 8 Oeste 0 -- -- 97
2020-09-01 02:00:00 15.4 4 Noroeste 14 Norte 0 -- -- 97
2020-09-01 01:00:00 15.5 5 Noroeste 14 Norte 0 -- -- 97
2020-09-01 00:00:00 15.4 5 Oeste 21 Noroeste 0 -- -- 97
2020-08-31 23:00:00 15.4 10 Noroeste 19 Noroeste 0 -- -- 97
2020-08-31 22:00:00 15.6 5 Oeste 17 Oeste 0 -- -- 94
2020-08-31 21:00:00 15.7 9 Noroeste 18 Oeste 0 -- -- 93
2020-08-31 20:00:00 15.8 10 Noroeste 15 Noroeste 0 -- -- 91
2020-08-31 19:00:00 18.4 10 Noroeste 20 Noroeste 0 -- -- 74
2020-08-31 18:00:00 19.7 13 Noroeste 24 Noroeste 0 -- -- 67
2020-08-31 17:00:00 19 11 Noroeste 21 Noroeste 0 -- -- 73
2020-08-31 16:00:00 19.7 11 Noroeste 22 Noroeste 0 -- -- 75
2020-08-31 15:00:00 18.9 10 Noroeste 21 Norte 0 -- -- 77
2020-08-31 14:00:00 18.6 11 Norte 22 Norte 0 -- -- 78
2020-08-31 13:00:00 18.9 9 Noroeste 18 Noroeste 0 -- -- 77
2020-08-31 12:00:00 17.5 8 Noroeste 17 Norte 0 -- -- 87
2020-08-31 11:00:00 15.8 9 Norte 18 Norte 0 -- -- 91
2020-08-31 10:00:00 15.9 6 Norte 14 Norte 0 -- -- 90
2020-08-31 09:00:00 14.5 5 Oeste 13 Oeste 0 -- -- 92
2020-08-31 08:00:00 13.6 4 Oeste 13 Oeste 0 -- -- 88
2020-08-31 07:00:00 13.7 7 Oeste 18 Oeste 0 -- -- 87
2020-08-31 06:00:00 13.4 5 Oeste 12 Oeste 0 -- -- 94
2020-08-31 05:00:00 13.5 3 Sur 12 Oeste 0 -- -- 93
2020-08-31 04:00:00 13.9 4 Oeste 10 Noroeste 0 -- -- 95
2020-08-31 03:00:00 14.1 4 Norte 19 Nordeste 0 -- -- 95
2020-08-31 02:00:00 13.7 5 Sudoeste 10 Nordeste 0 -- -- 96
2020-08-31 01:00:00 14.1 7 Norte 19 Nordeste 0 -- -- 96
2020-08-31 00:00:00 14 6 Noroeste 21 Norte 0 -- -- 96
2020-08-30 23:00:00 14.3 9 Norte 18 Norte 0 -- -- 95
2020-08-30 22:00:00 13.9 6 Noroeste 18 Norte 0 -- -- 95
2020-08-30 21:00:00 13.8 9 Noroeste 24 Norte 0 -- -- 93
2020-08-30 20:00:00 14.7 13 Noroeste 27 Noroeste 0 -- -- 92
2020-08-30 19:00:00 15.7 14 Norte 28 Norte 0 -- -- 88
2020-08-30 18:00:00 15.9 15 Norte 27 Norte 0 -- -- 88
2020-08-30 17:00:00 17.8 10 Norte 27 Norte 0 -- -- 78
2020-08-30 16:00:00 16 14 Norte 25 Noroeste 0 -- -- 88
2020-08-30 15:00:00 17.3 13 Norte 27 Norte 0 -- -- 79
2020-08-30 14:00:00 16.9 13 Norte 27 Norte 0 -- -- 83
2020-08-30 13:00:00 16.5 12 Norte 25 Norte 0 -- -- 88
2020-08-30 12:00:00 15.3 9 Noroeste 40 Norte 0.2 -- -- 98
2020-08-30 11:00:00 15.1 12 Norte 32 Noroeste 0.4 -- -- 98
2020-08-30 10:00:00 14.6 9 Oeste 18 Oeste 0.2 -- -- 98
2020-08-30 09:00:00 14 7 Oeste 27 Norte 0 -- -- 98
2020-08-30 08:00:00 13.2 14 Norte 30 Norte 0.2 -- -- 99
2020-08-30 07:00:00 14.3 16 Norte 32 Norte 1 -- -- 99
2020-08-30 06:00:00 13.5 9 Norte 33 Noroeste 0 -- -- 99
2020-08-30 05:00:00 14.4 21 Norte 41 Noroeste 2.6 -- -- 99
2020-08-30 04:00:00 14.3 10 Norte 26 Norte 0 -- -- 99
2020-08-30 03:00:00 14.5 10 Noroeste 32 Norte 0 -- -- 99
2020-08-30 02:00:00 14.7 17 Norte 34 Norte 0 -- -- 99
2020-08-30 01:00:00 14.7 18 Norte 34 Norte 0 -- -- 98
2020-08-30 00:00:00 14.8 13 Norte 31 Norte 0 -- -- 98
2020-08-29 23:00:00 14.9 16 Norte 31 Norte 0 -- -- 98
2020-08-29 22:00:00 15.2 15 Noroeste 32 Noroeste 0.2 -- -- 97
2020-08-29 21:00:00 15 11 Noroeste 25 Norte 0 -- -- 98
2020-08-29 20:00:00 15.8 11 Norte 27 Norte 0 -- -- 96
2020-08-29 19:00:00 16.7 12 Noroeste 31 Norte 0.6 -- -- 96
2020-08-29 18:00:00 18.6 8 Norte 27 Norte 0.8 -- -- 89
2020-08-29 17:00:00 19 15 Norte 28 Norte 0 -- -- 86
2020-08-29 16:00:00 21.2 9 Norte 25 Noroeste 0 -- -- 72
2020-08-29 15:00:00 22.6 9 Norte 27 Norte 0 -- -- 64
2020-08-29 14:00:00 21.7 13 Norte 30 Norte 0 -- -- 66
2020-08-29 13:00:00 21.1 8 Norte 23 Norte 0 -- -- 66
2020-08-29 12:00:00 21 8 Norte 23 Norte 0 -- -- 67
2020-08-29 11:00:00 18.4 8 Noroeste 20 Norte 0 -- -- 77
2020-08-29 10:00:00 16.8 5 Noroeste 16 Norte 0 -- -- 83
2020-08-29 09:00:00 15.7 6 Noroeste 18 Norte 0 -- -- 92
2020-08-29 08:00:00 15.6 7 Noroeste 19 Norte 0 -- -- 92
2020-08-29 07:00:00 15.7 5 Oeste 19 Norte 0 -- -- 91
2020-08-29 06:00:00 15.3 4 Noroeste 13 Sudoeste 0 -- -- 88
2020-08-29 05:00:00 15.4 6 Noroeste 14 Nordeste 0 -- -- 87
2020-08-29 04:00:00 17.2 4 Noroeste 17 Noroeste 0 -- -- 63
2020-08-29 03:00:00 18.7 6 Noroeste 19 Noroeste 0 -- -- 43
2020-08-29 02:00:00 19.8 5 Noroeste 17 Oeste 0 -- -- 35
2020-08-29 01:00:00 20.3 3 Oeste 7 Noroeste 0 -- -- 30
2020-08-29 00:00:00 20.6 0 Calma 16 Norte 0 -- -- 30
2020-08-28 23:00:00 21.5 3 Noroeste 8 Norte 0 -- -- 25
2020-08-28 22:00:00 23.6 2 Nordeste 11 Sudoeste 0 -- -- 22
2020-08-28 21:00:00 23 2 Sudeste 12 Nordeste 0 -- -- 26
2020-08-28 20:00:00 26.1 2 Nordeste 9 Nordeste 0 -- -- 18
2020-08-28 19:00:00 28.5 3 Sudeste 12 Sudeste 0 -- -- 25
2020-08-28 18:00:00 29.6 5 Sudeste 15 Este 0 -- -- 30
2020-08-28 17:00:00 29.7 8 Sudeste 17 Este 0 -- -- 24
2020-08-28 16:00:00 31.5 10 Sudeste 16 Sudeste 0 -- -- 23
2020-08-28 15:00:00 32.4 6 Sudeste 18 Este 0 -- -- 27
2020-08-28 14:00:00 32.8 9 Sudeste 20 Este 0 -- -- 20
2020-08-28 13:00:00 34.2 6 Sudeste 22 Sudeste 0 -- -- 15
2020-08-28 12:00:00 33.9 8 Sudeste 30 Este 0 -- -- 17
2020-08-28 11:00:00 32.3 10 Este 33 Sudeste 0 -- -- 17
2020-08-28 10:00:00 30.6 9 Sudeste 22 Sudeste 0 -- -- 18
2020-08-28 09:00:00 28.4 8 Sudeste 27 Este 0 -- -- 19
2020-08-28 08:00:00 26.3 13 Este 26 Este 0 -- -- 21
2020-08-28 07:00:00 26.5 12 Sudeste 29 Este 0 -- -- 21
2020-08-28 06:00:00 26.6 15 Este 30 Este 0 -- -- 19
2020-08-28 05:00:00 26.8 11 Sudeste 22 Sudeste 0 -- -- 20
2020-08-28 04:00:00 26.9 9 Sudeste 26 Este 0 -- -- 18
2020-08-28 03:00:00 27.8 13 Este 27 Nordeste 0 -- -- 16
2020-08-28 02:00:00 27.5 13 Sudeste 25 Sudeste 0 -- -- 18
2020-08-28 01:00:00 27.5 9 Sudeste 22 Sudeste 0 -- -- 19
2020-08-28 00:00:00 28.4 14 Este 27 Sudeste 0 -- -- 19
2020-08-27 23:00:00 27.7 13 Sudeste 20 Sudeste 0 -- -- 22
2020-08-27 22:00:00 27.7 9 Sudeste 19 Este 0 -- -- 24
2020-08-27 21:00:00 28.6 10 Sudeste 18 Este 0 -- -- 24
2020-08-27 20:00:00 29.8 8 Sudeste 14 Sudeste 0 -- -- 22
2020-08-27 19:00:00 32.3 10 Este 17 Sudeste 0 -- -- 19
2020-08-27 18:00:00 33.5 12 Este 22 Este 0 -- -- 19
2020-08-27 17:00:00 35.3 9 Este 22 Este 0 -- -- 20
2020-08-27 16:00:00 36.7 9 Este 21 Este 0 -- -- 18
2020-08-27 15:00:00 39 9 Norte 19 Norte 0 -- -- 16
2020-08-27 14:00:00 38.7 5 Este 14 Norte 0 -- -- 15
2020-08-27 13:00:00 38.3 6 Norte 17 Norte 0 -- -- 16
2020-08-27 12:00:00 37.7 7 Norte 18 Norte 0 -- -- 16
2020-08-27 11:00:00 36.5 5 Norte 11 Norte 0 -- -- 19
2020-08-27 10:00:00 34.4 3 Noroeste 11 Norte 0 -- -- 22
2020-08-27 09:00:00 31.6 4 Nordeste 13 Este 0 -- -- 25
2020-08-27 08:00:00 29.8 3 Oeste 5 Oeste 0 -- -- 31
2020-08-27 07:00:00 29 3 Norte 9 Noroeste 0 -- -- 34
2020-08-27 06:00:00 29.7 5 Oeste 9 Oeste 0 -- -- 32
2020-08-27 05:00:00 29.6 8 Noroeste 14 Oeste 0 -- -- 32
2020-08-27 04:00:00 28.5 9 Oeste 16 Noroeste 0 -- -- 36
2020-08-27 03:00:00 28.7 9 Noroeste 13 Noroeste 0 -- -- 37
2020-08-27 02:00:00 28.3 9 Noroeste 13 Oeste 0 -- -- 39
2020-08-27 01:00:00 30.3 9 Oeste 12 Oeste 0 -- -- 30
2020-08-27 00:00:00 31.3 6 Noroeste 15 Oeste 0 -- -- 31
2020-08-26 23:00:00 31.2 8 Oeste 12 Oeste 0 -- -- 31
2020-08-26 22:00:00 31 5 Oeste 7 Oeste 0 -- -- 32
2020-08-26 21:00:00 31.7 3 Oeste 5 Noroeste 0 -- -- 31
2020-08-26 20:00:00 32.6 0 Calma 6 Noroeste 0 -- -- 33
2020-08-26 19:00:00 34.2 3 Noroeste 10 Noroeste 0 -- -- 29
2020-08-26 18:00:00 35.5 6 Noroeste 12 Noroeste 0 -- -- 27
2020-08-26 17:00:00 35.9 7 Noroeste 18 Norte 0 -- -- 27
2020-08-26 16:00:00 37.2 9 Norte 15 Noroeste 0 -- -- 25
2020-08-26 15:00:00 37.3 10 Norte 17 Norte 0 -- -- 24
2020-08-26 14:00:00 38.3 7 Norte 14 Norte 0 -- -- 24
2020-08-26 13:00:00 37.4 7 Norte 17 Este 0 -- -- 26
2020-08-26 12:00:00 35.6 11 Este 29 Este 0 -- -- 28
2020-08-26 11:00:00 34.1 16 Sudeste 36 Sudeste 0 -- -- 27
2020-08-26 10:00:00 32.1 28 Sudeste 46 Sudeste 0 -- -- 28
2020-08-26 09:00:00 30.8 25 Sudeste 44 Sudeste 0 -- -- 27
2020-08-26 08:00:00 30.6 24 Sudeste 40 Sudeste 0 -- -- 21
2020-08-26 07:00:00 31 18 Sudeste 45 Este 0 -- -- 18
2020-08-26 06:00:00 31.1 22 Sudeste 38 Sudeste 0 -- -- 16
2020-08-26 05:00:00 29.7 17 Sudeste 32 Sur 0 -- -- 17
2020-08-26 04:00:00 28.5 18 Sudeste 28 Sudeste 0 -- -- 19
2020-08-26 03:00:00 26.9 18 Sudeste 26 Sudeste 0 -- -- 25
2020-08-26 02:00:00 23.9 16 Sudeste 24 Este 0 -- -- 38
2020-08-26 01:00:00 26 6 Oeste 17 Noroeste 0 -- -- 32
2020-08-26 00:00:00 30.3 7 Noroeste 10 Oeste 0 -- -- 20